Time;durP1;ratioP1;P1;durP2;ratioP2;P2;SDS_P1;SDS_P2;PMS_P1;PMS_P2;Temp;Humidity;BMP_temperature;BMP_pressure;BME280_temperature;BME280_humidity;BME280_pressure;Samples;Min_cycle;Max_cycle;Signal;HPM_P1;HPM_P2
2023/01/01 00:02:01;;;;;;;11.98;6.47;;;;;;;;;;5053250;28;20044;-42
2023/01/01 00:04:27;;;;;;;14.90;6.68;;;;;;;;;;5052164;28;20021;-41
2023/01/01 00:06:53;;;;;;;11.98;6.18;;;;;;;;;;5053507;28;20021;-42
2023/01/01 00:12:02;;;;;;;11.20;5.28;;;;;;;;;;5053295;28;20103;-41
2023/01/01 00:14:28;;;;;;;12.48;6.53;;;;;;;;;;5053407;28;20108;-42
2023/01/01 00:16:54;;;;;;;13.50;7.03;;;;;;;;;;5051839;28;20537;-42
2023/01/01 00:19:20;;;;;;;12.98;6.47;;;;;;;;;;5053049;28;20017;-41
2023/01/01 00:21:45;;;;;;;15.85;6.07;;;;;;;;;;5052865;28;20059;-41
2023/01/01 00:24:10;;;;;;;16.52;8.38;;;;;;;;;;5053064;28;20058;-42
2023/01/01 00:26:36;;;;;;;11.07;5.85;;;;;;;;;;5053048;28;20116;-42
2023/01/01 00:29:02;;;;;;;16.08;6.15;;;;;;;;;;5052949;28;20025;-42
2023/01/01 00:31:28;;;;;;;13.15;5.63;;;;;;;;;;5052907;28;20033;-41
2023/01/01 00:33:53;;;;;;;19.42;7.07;;;;;;;;;;5052953;28;20032;-42
2023/01/01 00:36:20;;;;;;;13.50;6.15;;;;;;;;;;5052959;28;20025;-41
2023/01/01 00:38:45;;;;;;;11.10;4.63;;;;;;;;;;5052876;28;20055;-42
2023/01/01 00:41:11;;;;;;;15.00;5.82;;;;;;;;;;5052810;28;20045;-42
2023/01/01 00:43:37;;;;;;;17.38;7.30;;;;;;;;;;5052615;28;20017;-42
2023/01/01 00:46:03;;;;;;;9.75;5.78;;;;;;;;;;5052847;28;20379;-42
2023/01/01 00:48:29;;;;;;;15.93;7.28;;;;;;;;;;5052508;28;20379;-41
2023/01/01 00:50:54;;;;;;;11.43;6.78;;;;;;;;;;5052329;28;20033;-42
2023/01/01 00:53:20;;;;;;;20.38;7.95;;;;;;;;;;5052384;28;20368;-42
2023/01/01 00:55:47;;;;;;;14.82;7.90;;;;;;;;;;5052611;28;20032;-42
2023/01/01 00:58:13;;;;;;;14.75;6.88;;;;;;;;;;5052282;28;20103;-41
2023/01/01 01:00:38;;;;;;;18.20;7.63;;;;;;;;;;5051949;28;20465;-41
2023/01/01 01:03:04;;;;;;;20.65;8.63;;;;;;;;;;5052525;28;20025;-41
2023/01/01 01:05:30;;;;;;;12.80;6.43;;;;;;;;;;5052159;28;20470;-42
2023/01/01 01:07:56;;;;;;;21.92;8.32;;;;;;;;;;5052117;28;20028;-42
2023/01/01 01:10:22;;;;;;;19.60;6.30;;;;;;;;;;5052118;28;20033;-42
2023/01/01 01:12:47;;;;;;;15.88;5.78;;;;;;;;;;5051995;28;20017;-41
2023/01/01 01:15:14;;;;;;;19.65;8.45;;;;;;;;;;5050746;28;20379;-41
2023/01/01 01:17:39;;;;;;;16.27;6.80;;;;;;;;;;5050583;28;20095;-41
2023/01/01 01:20:05;;;;;;;17.10;8.43;;;;;;;;;;5051951;28;20235;-42
2023/01/01 01:22:33;;;;;;;18.25;7.53;;;;;;;;;;5051827;28;20028;-42
2023/01/01 01:24:58;;;;;;;20.65;9.13;;;;;;;;;;5051731;28;20074;-41
2023/01/01 01:27:24;;;;;;;18.17;7.15;;;;;;;;;;5051786;28;20092;-42
2023/01/01 01:29:49;;;;;;;27.58;8.18;;;;;;;;;;5051772;28;20036;-41
2023/01/01 01:32:14;;;;;;;18.15;7.07;;;;;;;;;;5051311;28;20020;-42
2023/01/01 01:34:40;;;;;;;18.40;7.80;;;;;;;;;;5051911;28;20417;-42
2023/01/01 01:37:05;;;;;;;18.17;8.65;;;;;;;;;;5051690;28;20482;-42
2023/01/01 01:39:30;;;;;;;17.40;8.40;;;;;;;;;;5051816;28;20025;-42
2023/01/01 01:41:56;;;;;;;28.10;9.25;;;;;;;;;;5051493;28;20028;-41
2023/01/01 01:44:40;;;;;;;18.90;8.35;;;;;;;;;;5051554;28;20120;-41
2023/01/01 01:47:08;;;;;;;25.20;10.00;;;;;;;;;;5051774;28;20107;-42
2023/01/01 01:49:33;;;;;;;13.27;7.47;;;;;;;;;;5051418;28;20103;-42
2023/01/01 01:51:59;;;;;;;23.13;8.20;;;;;;;;;;5051415;28;20108;-41
2023/01/01 01:54:26;;;;;;;22.13;9.23;;;;;;;;;;5051485;28;20028;-42
2023/01/01 01:56:59;;;;;;;19.58;9.40;;;;;;;;;;5050379;28;20025;-41
2023/01/01 01:59:26;;;;;;;17.10;8.75;;;;;;;;;;5051603;28;20033;-41
2023/01/01 02:01:51;;;;;;;24.27;11.05;;;;;;;;;;5051127;28;20048;-41
2023/01/01 02:04:17;;;;;;;23.73;10.13;;;;;;;;;;5051355;28;20036;-42
2023/01/01 02:06:43;;;;;;;24.30;8.43;;;;;;;;;;5050255;28;20029;-42
2023/01/01 02:09:09;;;;;;;19.80;9.15;;;;;;;;;;5051498;28;20092;-43
2023/01/01 02:11:34;;;;;;;16.65;8.80;;;;;;;;;;5051224;28;20021;-42
2023/01/01 02:14:00;;;;;;;23.80;9.93;;;;;;;;;;5051195;28;20128;-41
2023/01/01 02:16:25;;;;;;;22.45;9.77;;;;;;;;;;5051496;28;20406;-44
2023/01/01 02:18:56;;;;;;;16.27;9.02;;;;;;;;;;5051074;28;20125;-42
2023/01/01 02:21:24;;;;;;;15.73;8.93;;;;;;;;;;5051407;28;20040;-42
2023/01/01 02:23:55;;;;;;;22.40;10.07;;;;;;;;;;5051360;28;20025;-42
2023/01/01 02:26:37;;;;;;;17.35;9.57;;;;;;;;;;5051214;28;20033;-41
2023/01/01 02:29:21;;;;;;;17.15;8.60;;;;;;;;;;5051191;28;20033;-41
2023/01/01 02:31:53;;;;;;;25.92;8.45;;;;;;;;;;5051056;28;20376;-41
2023/01/01 02:34:22;;;;;;;21.33;9.38;;;;;;;;;;5051115;28;20033;-42
2023/01/01 02:36:50;;;;;;;18.25;8.07;;;;;;;;;;5051216;28;20445;-42
2023/01/01 02:39:16;;;;;;;20.98;8.13;;;;;;;;;;5051257;28;20434;-41
2023/01/01 02:41:44;;;;;;;16.67;9.10;;;;;;;;;;5050945;28;20033;-42
2023/01/01 02:44:10;;;;;;;28.92;9.57;;;;;;;;;;5053971;28;20025;-41
2023/01/01 02:46:35;;;;;;;29.15;9.65;;;;;;;;;;5055200;28;20421;-42
2023/01/01 02:49:01;;;;;;;20.63;9.98;;;;;;;;;;5054681;28;20033;-41
2023/01/01 02:51:45;;;;;;;22.83;9.77;;;;;;;;;;5055027;28;20025;-42
2023/01/01 02:54:16;;;;;;;16.95;8.80;;;;;;;;;;5054753;28;20021;-42
2023/01/01 02:56:54;;;;;;;22.25;8.75;;;;;;;;;;5054894;28;20147;-41
2023/01/01 03:02:16;;;;;;;19.98;9.85;;;;;;;;;;5054821;28;20048;-41
2023/01/01 03:05:04;;;;;;;18.67;8.32;;;;;;;;;;5054387;28;20055;-41
2023/01/01 03:07:30;;;;;;;20.23;10.02;;;;;;;;;;5054687;28;20423;-41
2023/01/01 03:10:03;;;;;;;25.30;10.55;;;;;;;;;;5054391;28;20045;-47
2023/01/01 03:12:38;;;;;;;19.42;10.73;;;;;;;;;;5054357;28;20044;-41
2023/01/01 03:15:22;;;;;;;20.83;9.13;;;;;;;;;;5054219;28;20059;-43
2023/01/01 03:17:57;;;;;;;20.63;10.07;;;;;;;;;;5054444;28;20055;-41
2023/01/01 03:20:24;;;;;;;31.75;9.98;;;;;;;;;;5054086;28;20459;-41
2023/01/01 03:22:51;;;;;;;21.88;11.95;;;;;;;;;;5054004;28;20360;-41
2023/01/01 03:25:22;;;;;;;21.42;11.10;;;;;;;;;;5054185;28;20029;-42
2023/01/01 03:27:49;;;;;;;19.17;9.15;;;;;;;;;;5054197;28;20031;-41
2023/01/01 03:30:18;;;;;;;21.95;11.20;;;;;;;;;;5054320;28;20033;-41
2023/01/01 03:33:06;;;;;;;25.85;11.10;;;;;;;;;;5053888;28;20067;-42
2023/01/01 03:35:47;;;;;;;21.13;9.35;;;;;;;;;;5053929;28;20494;-42
2023/01/01 03:38:23;;;;;;;28.40;11.23;;;;;;;;;;5053739;28;20540;-41
2023/01/01 03:40:50;;;;;;;30.67;11.70;;;;;;;;;;5053682;28;20403;-43
2023/01/01 03:43:20;;;;;;;19.95;8.80;;;;;;;;;;5053815;28;20021;-41
2023/01/01 03:45:47;;;;;;;23.33;11.40;;;;;;;;;;5052424;28;20548;-42
2023/01/01 03:48:13;;;;;;;27.10;10.40;;;;;;;;;;5053594;28;20144;-42
2023/01/01 03:50:44;;;;;;;23.10;10.55;;;;;;;;;;5053672;28;20502;-41
2023/01/01 03:53:16;;;;;;;27.35;10.45;;;;;;;;;;5053296;28;20028;-41
2023/01/01 03:55:44;;;;;;;21.30;10.32;;;;;;;;;;5053436;28;20491;-42
2023/01/01 03:58:09;;;;;;;25.70;9.75;;;;;;;;;;5053714;28;20017;-41
2023/01/01 04:00:57;;;;;;;23.73;10.30;;;;;;;;;;5053212;28;20056;-41
2023/01/01 04:03:24;;;;;;;24.83;11.40;;;;;;;;;;5053401;28;20039;-42
2023/01/01 04:05:49;;;;;;;28.23;11.20;;;;;;;;;;5053269;28;20025;-42
2023/01/01 04:08:15;;;;;;;27.52;11.88;;;;;;;;;;5053329;28;20040;-41
2023/01/01 04:10:43;;;;;;;22.98;10.82;;;;;;;;;;5053507;28;20021;-41
2023/01/01 04:13:09;;;;;;;30.52;12.00;;;;;;;;;;5053204;28;20036;-41
2023/01/01 04:15:35;;;;;;;31.73;12.15;;;;;;;;;;5053140;28;20036;-41
2023/01/01 04:18:00;;;;;;;30.90;11.05;;;;;;;;;;5053063;28;20108;-41
2023/01/01 04:20:26;;;;;;;28.40;11.73;;;;;;;;;;5053280;28;20115;-42
2023/01/01 04:22:54;;;;;;;23.25;11.23;;;;;;;;;;5053154;28;20035;-41
2023/01/01 04:25:19;;;;;;;30.15;10.43;;;;;;;;;;5052806;28;20033;-42
2023/01/01 04:27:45;;;;;;;22.38;9.88;;;;;;;;;;5053125;28;20025;-42
2023/01/01 04:30:11;;;;;;;26.92;9.52;;;;;;;;;;5053060;28;20108;-41
2023/01/01 04:32:37;;;;;;;28.92;10.88;;;;;;;;;;5052875;28;20041;-42
2023/01/01 04:35:03;;;;;;;18.27;9.82;;;;;;;;;;5052724;28;20013;-42
2023/01/01 04:37:28;;;;;;;26.48;11.30;;;;;;;;;;5053045;28;20033;-41
2023/01/01 04:39:53;;;;;;;24.92;10.38;;;;;;;;;;5052906;28;20078;-41
2023/01/01 04:42:18;;;;;;;19.42;9.88;;;;;;;;;;5052871;28;20079;-42
2023/01/01 04:44:45;;;;;;;24.85;9.32;;;;;;;;;;5052811;28;20360;-43
2023/01/01 04:47:10;;;;;;;24.73;10.15;;;;;;;;;;5052517;28;20108;-42
2023/01/01 04:49:36;;;;;;;23.77;11.13;;;;;;;;;;5052848;28;20454;-41
2023/01/01 04:52:01;;;;;;;14.52;8.13;;;;;;;;;;5052613;28;20025;-42
2023/01/01 04:54:26;;;;;;;22.55;9.02;;;;;;;;;;5052688;28;20107;-41
2023/01/01 04:56:52;;;;;;;19.67;9.20;;;;;;;;;;5051138;28;20104;-41
2023/01/01 04:59:17;;;;;;;24.88;9.88;;;;;;;;;;5052541;28;20124;-42
2023/01/01 05:01:44;;;;;;;21.88;9.25;;;;;;;;;;5051984;28;20057;-41
2023/01/01 05:04:11;;;;;;;25.92;10.38;;;;;;;;;;5052542;28;20031;-41
2023/01/01 05:06:36;;;;;;;20.55;9.52;;;;;;;;;;5051724;28;20029;-41
2023/01/01 05:09:02;;;;;;;17.88;9.98;;;;;;;;;;5052044;28;20090;-41
2023/01/01 05:11:29;;;;;;;18.30;9.13;;;;;;;;;;5052464;28;20603;-42
2023/01/01 05:13:55;;;;;;;15.52;9.77;;;;;;;;;;5051917;28;20463;-42
2023/01/01 05:16:22;;;;;;;21.83;9.07;;;;;;;;;;5052095;28;20021;-41
2023/01/01 05:18:48;;;;;;;28.52;10.90;;;;;;;;;;5052172;28;20067;-42
2023/01/01 05:21:15;;;;;;;22.15;9.75;;;;;;;;;;5052107;28;20482;-42
2023/01/01 05:23:41;;;;;;;24.48;10.00;;;;;;;;;;5051899;28;20145;-41
2023/01/01 05:26:12;;;;;;;26.98;10.27;;;;;;;;;;5051999;28;20100;-43
2023/01/01 05:28:38;;;;;;;20.80;10.38;;;;;;;;;;5051980;28;20108;-42
2023/01/01 05:31:04;;;;;;;27.00;9.50;;;;;;;;;;5051612;28;20423;-42
2023/01/01 05:33:30;;;;;;;24.65;9.40;;;;;;;;;;5051803;28;20060;-42
2023/01/01 05:35:55;;;;;;;18.90;9.10;;;;;;;;;;5051844;28;20048;-42
2023/01/01 05:38:21;;;;;;;19.70;10.45;;;;;;;;;;5051918;28;20544;-41
2023/01/01 05:40:46;;;;;;;18.40;9.25;;;;;;;;;;5051452;28;20375;-41
2023/01/01 05:43:11;;;;;;;18.58;8.95;;;;;;;;;;5051517;28;20056;-41
2023/01/01 05:45:37;;;;;;;27.25;10.43;;;;;;;;;;5051672;28;20025;-41
2023/01/01 05:48:03;;;;;;;21.60;9.40;;;;;;;;;;5051670;28;20432;-41
2023/01/01 05:50:28;;;;;;;21.65;9.20;;;;;;;;;;5051787;28;20029;-42
2023/01/01 05:52:54;;;;;;;21.38;10.82;;;;;;;;;;5051416;28;20379;-42
2023/01/01 05:55:19;;;;;;;24.65;11.80;;;;;;;;;;5051729;28;20226;-42
2023/01/01 05:57:44;;;;;;;20.08;9.27;;;;;;;;;;5051312;28;20499;-42
2023/01/01 06:00:10;;;;;;;31.92;12.50;;;;;;;;;;5051387;28;20044;-42
2023/01/01 06:02:35;;;;;;;27.17;12.10;;;;;;;;;;5050087;28;20025;-41
2023/01/01 06:05:03;;;;;;;31.55;10.13;;;;;;;;;;5051293;28;20060;-41
2023/01/01 06:07:29;;;;;;;21.42;10.05;;;;;;;;;;5051250;28;20028;-41
2023/01/01 06:09:55;;;;;;;22.08;10.27;;;;;;;;;;5051183;28;20035;-41
2023/01/01 06:12:20;;;;;;;27.10;9.55;;;;;;;;;;5051306;28;20028;-42
2023/01/01 06:14:46;;;;;;;19.48;9.23;;;;;;;;;;5051227;28;20151;-41
2023/01/01 06:17:11;;;;;;;27.30;11.13;;;;;;;;;;5052690;28;20091;-42
2023/01/01 06:19:36;;;;;;;30.05;11.43;;;;;;;;;;5055698;28;20036;-42
2023/01/01 06:22:02;;;;;;;18.70;9.02;;;;;;;;;;5055163;28;20391;-42
2023/01/01 06:24:27;;;;;;;21.80;10.40;;;;;;;;;;5055355;28;20527;-41
2023/01/01 06:26:52;;;;;;;22.73;10.15;;;;;;;;;;5055397;28;20041;-42
2023/01/01 06:29:18;;;;;;;25.98;10.23;;;;;;;;;;5055308;28;20028;-42
2023/01/01 06:31:44;;;;;;;23.63;11.02;;;;;;;;;;5055357;28;20033;-42
2023/01/01 06:34:09;;;;;;;22.73;9.10;;;;;;;;;;5055115;28;20013;-42
2023/01/01 06:36:34;;;;;;;34.10;12.13;;;;;;;;;;5055115;28;20032;-41
2023/01/01 06:39:02;;;;;;;26.30;11.25;;;;;;;;;;5054835;28;20534;-41
2023/01/01 06:41:27;;;;;;;31.23;11.32;;;;;;;;;;5054935;28;20029;-42
2023/01/01 06:43:54;;;;;;;28.27;10.95;;;;;;;;;;5055147;28;20352;-41
2023/01/01 06:46:22;;;;;;;26.63;10.60;;;;;;;;;;5054806;28;20033;-42
2023/01/01 06:48:48;;;;;;;22.13;9.45;;;;;;;;;;5055071;28;20035;-41
2023/01/01 06:51:21;;;;;;;22.00;9.60;;;;;;;;;;5055107;28;20055;-41
2023/01/01 06:53:46;;;;;;;;;;;;;;;;;;5055117;28;20426;-42
2023/01/01 06:56:11;;;;;;;20.88;8.88;;;;;;;;;;5055013;28;19959;-41
2023/01/01 06:58:37;;;;;;;20.40;9.38;;;;;;;;;;5054681;28;20482;-41
2023/01/01 07:01:08;;;;;;;21.85;9.45;;;;;;;;;;5054278;28;20048;-41
2023/01/01 07:03:34;;;;;;;21.45;9.45;;;;;;;;;;5054513;28;20379;-41
2023/01/01 07:05:59;;;;;;;23.95;9.63;;;;;;;;;;5054745;28;20037;-41
2023/01/01 07:08:25;;;;;;;27.42;9.95;;;;;;;;;;5054329;28;20609;-41
2023/01/01 07:10:51;;;;;;;22.05;9.18;;;;;;;;;;5054307;28;20017;-42
2023/01/01 07:13:16;;;;;;;35.35;10.07;;;;;;;;;;5054450;28;20478;-41
2023/01/01 07:15:43;;;;;;;23.67;10.13;;;;;;;;;;5054570;28;20025;-41
2023/01/01 07:18:08;;;;;;;25.52;9.30;;;;;;;;;;5054474;28;20108;-41
2023/01/01 07:20:34;;;;;;;19.88;9.45;;;;;;;;;;5054114;28;20017;-42
2023/01/01 07:23:01;;;;;;;20.15;8.20;;;;;;;;;;5054378;28;20032;-41
2023/01/01 07:25:26;;;;;;;28.45;11.18;;;;;;;;;;5054463;28;20017;-41
2023/01/01 07:27:52;;;;;;;24.05;9.63;;;;;;;;;;5053693;28;20485;-42
2023/01/01 07:30:17;;;;;;;25.92;10.32;;;;;;;;;;5052282;28;20017;-41
2023/01/01 07:32:42;;;;;;;21.55;9.95;;;;;;;;;;5053999;28;20084;-42
2023/01/01 07:35:09;;;;;;;22.48;9.00;;;;;;;;;;5054141;28;20013;-41
2023/01/01 07:37:34;;;;;;;24.23;9.43;;;;;;;;;;5054137;28;20033;-42
2023/01/01 07:39:59;;;;;;;17.73;8.93;;;;;;;;;;5054025;28;20348;-41
2023/01/01 07:42:25;;;;;;;31.80;10.18;;;;;;;;;;5053749;28;20091;-41
2023/01/01 07:44:50;;;;;;;24.52;9.02;;;;;;;;;;5053972;28;20531;-42
2023/01/01 07:47:23;;;;;;;18.40;8.70;;;;;;;;;;5053712;28;20491;-42
2023/01/01 07:49:49;;;;;;;22.33;7.97;;;;;;;;;;5053883;28;20382;-42
2023/01/01 07:52:15;;;;;;;29.60;9.10;;;;;;;;;;5052440;28;20025;-42
2023/01/01 07:54:40;;;;;;;22.48;9.90;;;;;;;;;;5053628;28;20119;-41
2023/01/01 07:57:06;;;;;;;28.23;9.90;;;;;;;;;;5053372;28;20013;-41
2023/01/01 07:59:32;;;;;;;16.33;8.23;;;;;;;;;;5053810;28;20025;-41
2023/01/01 08:01:58;;;;;;;18.05;8.85;;;;;;;;;;5053205;28;20053;-41
2023/01/01 08:04:25;;;;;;;23.83;9.88;;;;;;;;;;5053364;28;20029;-41
2023/01/01 08:06:52;;;;;;;24.70;9.80;;;;;;;;;;5053213;28;20025;-42
2023/01/01 08:09:17;;;;;;;19.38;9.93;;;;;;;;;;5053669;28;20033;-41
2023/01/01 08:11:43;;;;;;;25.17;8.90;;;;;;;;;;5053245;28;20375;-42
2023/01/01 08:14:08;;;;;;;29.90;10.25;;;;;;;;;;5053476;28;20021;-42
2023/01/01 08:16:33;;;;;;;29.30;10.40;;;;;;;;;;5053207;28;20467;-41
2023/01/01 08:18:59;;;;;;;27.50;9.80;;;;;;;;;;5053154;28;20116;-41
2023/01/01 08:21:24;;;;;;;31.13;11.13;;;;;;;;;;5053058;28;20028;-41
2023/01/01 08:23:50;;;;;;;21.05;9.63;;;;;;;;;;5052843;28;20025;-41
2023/01/01 08:26:16;;;;;;;35.80;11.98;;;;;;;;;;5053021;28;20136;-41
2023/01/01 08:28:42;;;;;;;23.67;9.68;;;;;;;;;;5052871;28;20029;-41
2023/01/01 08:31:08;;;;;;;24.70;10.00;;;;;;;;;;5053110;28;20030;-41
2023/01/01 08:33:33;;;;;;;24.38;9.85;;;;;;;;;;5052903;28;20035;-41
2023/01/01 08:35:59;;;;;;;25.95;10.63;;;;;;;;;;5053082;28;20039;-45
2023/01/01 08:38:24;;;;;;;24.75;10.15;;;;;;;;;;5053042;28;20375;-41
2023/01/01 08:40:50;;;;;;;26.95;11.18;;;;;;;;;;5051727;28;20036;-41
2023/01/01 08:43:16;;;;;;;21.88;9.60;;;;;;;;;;5052696;28;20033;-41
2023/01/01 08:45:42;;;;;;;31.15;11.68;;;;;;;;;;5052710;28;20021;-41
2023/01/01 08:48:07;;;;;;;27.35;10.93;;;;;;;;;;5052384;28;20075;-41
2023/01/01 08:50:33;;;;;;;23.50;10.57;;;;;;;;;;5052572;28;20017;-42
2023/01/01 08:52:58;;;;;;;28.13;11.07;;;;;;;;;;5052421;28;20506;-42
2023/01/01 08:55:23;;;;;;;26.15;10.50;;;;;;;;;;5052717;28;20108;-41
2023/01/01 08:57:49;;;;;;;29.58;12.40;;;;;;;;;;5052305;28;20119;-42
2023/01/01 09:00:15;;;;;;;32.80;10.10;;;;;;;;;;5052199;28;20029;-42
2023/01/01 09:02:40;;;;;;;23.77;10.68;;;;;;;;;;5052265;28;20491;-41
2023/01/01 09:05:06;;;;;;;26.70;8.93;;;;;;;;;;5052223;28;20131;-42
2023/01/01 09:07:31;;;;;;;22.48;11.10;;;;;;;;;;5052367;28;20037;-41
2023/01/01 09:09:57;;;;;;;31.05;12.63;;;;;;;;;;5052034;28;20078;-41
2023/01/01 09:12:22;;;;;;;20.58;10.98;;;;;;;;;;5052093;28;20052;-41
2023/01/01 09:14:48;;;;;;;26.42;12.57;;;;;;;;;;5052200;28;20479;-41
2023/01/01 09:17:13;;;;;;;37.30;12.07;;;;;;;;;;5052018;28;20420;-42
2023/01/01 09:19:39;;;;;;;28.65;12.32;;;;;;;;;;5051968;28;20021;-42
2023/01/01 09:22:07;;;;;;;28.88;12.10;;;;;;;;;;5051980;28;20040;-42
2023/01/01 09:24:33;;;;;;;31.08;14.68;;;;;;;;;;5050657;28;20432;-41
2023/01/01 09:26:58;;;;;;;30.85;12.55;;;;;;;;;;5051747;28;20076;-41
2023/01/01 09:29:24;;;;;;;32.67;11.70;;;;;;;;;;5052079;28;20052;-41
2023/01/01 09:31:49;;;;;;;31.23;12.93;;;;;;;;;;5052023;28;20021;-42
2023/01/01 09:34:16;;;;;;;30.90;11.55;;;;;;;;;;5052013;28;20081;-42
2023/01/01 09:36:42;;;;;;;24.67;10.98;;;;;;;;;;5051836;28;20029;-41
2023/01/01 09:39:09;;;;;;;32.78;12.63;;;;;;;;;;5051556;28;20425;-42
2023/01/01 09:41:47;;;;;;;38.58;12.40;;;;;;;;;;5051848;28;20044;-41
2023/01/01 09:44:16;;;;;;;33.13;12.15;;;;;;;;;;5051551;28;20029;-41
2023/01/01 09:46:41;;;;;;;33.45;12.45;;;;;;;;;;5051508;28;20025;-42
2023/01/01 09:49:25;;;;;;;30.92;12.40;;;;;;;;;;5051759;28;20025;-41
2023/01/01 09:51:54;;;;;;;34.72;12.50;;;;;;;;;;5051052;28;20391;-42
2023/01/01 09:54:22;;;;;;;27.30;11.30;;;;;;;;;;5051756;28;20408;-42
2023/01/01 09:56:52;;;;;;;31.10;13.43;;;;;;;;;;5051740;28;20399;-41
2023/01/01 09:59:17;;;;;;;33.65;13.93;;;;;;;;;;5051968;28;20086;-42
2023/01/01 10:01:56;;;;;;;30.38;11.20;;;;;;;;;;5051155;28;20061;-41
2023/01/01 10:04:28;;;;;;;28.70;13.50;;;;;;;;;;5051614;28;20045;-41
2023/01/01 10:06:54;;;;;;;31.90;12.90;;;;;;;;;;5051487;28;20116;-41
2023/01/01 10:09:34;;;;;;;22.88;11.27;;;;;;;;;;5051332;28;20105;-41
2023/01/01 10:12:05;;;;;;;27.95;11.23;;;;;;;;;;5051218;28;20029;-41
2023/01/01 10:14:35;;;;;;;29.75;10.90;;;;;;;;;;5051289;28;20479;-42
2023/01/01 10:17:10;;;;;;;35.60;12.25;;;;;;;;;;5051092;28;20023;-41
2023/01/01 10:19:41;;;;;;;39.92;13.63;;;;;;;;;;5051457;28;20135;-41
2023/01/01 10:22:15;;;;;;;27.42;10.55;;;;;;;;;;5051304;28;20395;-42
2023/01/01 10:24:59;;;;;;;35.03;13.00;;;;;;;;;;5051248;28;20100;-41
2023/01/01 10:27:28;;;;;;;27.63;13.02;;;;;;;;;;5051374;28;20060;-41
2023/01/01 10:29:53;;;;;;;29.60;11.75;;;;;;;;;;5051345;28;20106;-41
2023/01/01 10:32:22;;;;;;;30.23;12.38;;;;;;;;;;5051228;28;20452;-41
2023/01/01 10:34:49;;;;;;;27.75;12.18;;;;;;;;;;5051096;28;20475;-41
2023/01/01 10:37:14;;;;;;;23.75;11.25;;;;;;;;;;5051042;28;20056;-41
2023/01/01 10:39:40;;;;;;;29.77;13.23;;;;;;;;;;5051051;28;20052;-41
2023/01/01 10:42:06;;;;;;;32.20;11.90;;;;;;;;;;5050800;28;20045;-41
2023/01/01 10:44:32;;;;;;;25.70;11.10;;;;;;;;;;5051051;28;20383;-41
2023/01/01 10:47:01;;;;;;;28.67;13.55;;;;;;;;;;5050849;28;20032;-43
2023/01/01 10:49:26;;;;;;;30.92;13.75;;;;;;;;;;5050906;28;20024;-41
2023/01/01 10:51:53;;;;;;;23.02;11.77;;;;;;;;;;5051115;28;20029;-42
2023/01/01 10:54:35;;;;;;;23.75;11.65;;;;;;;;;;5050421;28;20032;-41
2023/01/01 10:57:12;;;;;;;34.40;14.45;;;;;;;;;;5050786;28;20067;-41
2023/01/01 10:59:39;;;;;;;26.45;11.75;;;;;;;;;;5050791;28;20172;-42
2023/01/01 11:02:24;;;;;;;25.52;11.50;;;;;;;;;;5050642;28;20087;-41
2023/01/01 11:04:50;;;;;;;27.63;12.73;;;;;;;;;;5053199;28;20029;-41
2023/01/01 11:07:23;;;;;;;33.67;12.80;;;;;;;;;;5054533;28;20063;-41
2023/01/01 11:09:48;;;;;;;24.63;10.80;;;;;;;;;;5054422;28;20514;-41
2023/01/01 11:12:19;;;;;;;23.50;10.32;;;;;;;;;;5054330;28;20032;-42
2023/01/01 11:14:52;;;;;;;37.00;15.02;;;;;;;;;;5054340;28;20083;-41
2023/01/01 11:17:25;;;;;;;33.78;14.27;;;;;;;;;;5054489;28;20032;-41
2023/01/01 11:19:51;;;;;;;38.35;14.00;;;;;;;;;;5054285;28;20028;-41
2023/01/01 11:22:34;;;;;;;26.45;12.10;;;;;;;;;;5054265;28;20033;-42
2023/01/01 11:25:01;;;;;;;23.15;11.25;;;;;;;;;;5054391;28;20032;-41
2023/01/01 11:27:26;;;;;;;24.38;11.98;;;;;;;;;;5054438;28;20495;-42
2023/01/01 11:30:11;;;;;;;27.80;10.63;;;;;;;;;;5054014;28;20029;-41
2023/01/01 11:32:37;;;;;;;28.42;12.45;;;;;;;;;;5053988;28;20025;-42
2023/01/01 11:35:05;;;;;;;34.22;12.88;;;;;;;;;;5053915;28;20025;-41
2023/01/01 11:37:38;;;;;;;33.90;11.70;;;;;;;;;;5054133;28;20402;-41
2023/01/01 11:40:05;;;;;;;32.15;14.13;;;;;;;;;;5053789;28;20033;-41
2023/01/01 11:42:32;;;;;;;31.67;12.98;;;;;;;;;;5053799;28;20025;-41
2023/01/01 11:45:00;;;;;;;25.02;12.55;;;;;;;;;;5053692;28;20029;-41
2023/01/01 11:47:28;;;;;;;30.80;12.15;;;;;;;;;;5053732;28;20040;-41
2023/01/01 11:49:59;;;;;;;25.58;12.80;;;;;;;;;;5053673;28;20063;-40
2023/01/01 11:52:26;;;;;;;31.17;13.00;;;;;;;;;;5053609;28;20096;-41
2023/01/01 11:54:52;;;;;;;34.33;13.18;;;;;;;;;;5053535;28;20016;-41
2023/01/01 11:57:20;;;;;;;23.75;12.68;;;;;;;;;;5053636;28;20365;-41
2023/01/01 11:59:52;;;;;;;42.72;16.42;;;;;;;;;;5052079;28;20017;-42
2023/01/01 12:02:28;;;;;;;31.08;12.73;;;;;;;;;;5053505;28;20056;-41
2023/01/01 12:04:58;;;;;;;34.35;14.30;;;;;;;;;;5053426;28;20032;-42
2023/01/01 12:07:26;;;;;;;32.15;14.00;;;;;;;;;;5053314;28;20100;-41
2023/01/01 12:09:52;;;;;;;28.50;12.35;;;;;;;;;;5053202;28;20025;-42
2023/01/01 12:12:41;;;;;;;23.83;11.73;;;;;;;;;;5053241;28;20020;-41
2023/01/01 12:15:19;;;;;;;26.98;12.30;;;;;;;;;;5049731;28;20037;-41
2023/01/01 12:18:10;;;;;;;28.45;13.68;;;;;;;;;;5053409;28;20748;-42
2023/01/01 12:20:39;;;;;;;28.58;10.82;;;;;;;;;;5051956;28;20041;-41
2023/01/01 12:23:07;;;;;;;34.92;11.88;;;;;;;;;;5051724;28;20536;-42
2023/01/01 12:25:36;;;;;;;33.25;12.90;;;;;;;;;;5053404;28;20025;-41
2023/01/01 12:28:22;;;;;;;28.88;13.25;;;;;;;;;;5052843;28;20037;-41
2023/01/01 12:31:12;;;;;;;20.95;12.40;;;;;;;;;;5052971;28;20497;-42
2023/01/01 12:33:41;;;;;;;29.65;11.80;;;;;;;;;;5052905;28;20479;-41
2023/01/01 12:36:16;;;;;;;29.95;11.43;;;;;;;;;;5052759;28;20021;-41
2023/01/01 12:38:44;;;;;;;22.77;12.00;;;;;;;;;;5052841;28;20474;-41
2023/01/01 12:41:22;;;;;;;23.85;12.95;;;;;;;;;;5052591;28;20471;-42
2023/01/01 12:43:56;;;;;;;30.80;14.20;;;;;;;;;;5052620;28;20067;-41
2023/01/01 12:46:25;;;;;;;29.20;13.27;;;;;;;;;;5052628;28;20033;-41
2023/01/01 12:49:20;;;;;;;32.85;12.77;;;;;;;;;;5052577;28;20021;-41
2023/01/01 12:51:52;;;;;;;29.98;12.82;;;;;;;;;;5032785;28;20120;-41
2023/01/01 12:54:23;;;;;;;31.10;13.13;;;;;;;;;;5052594;28;20040;-42
2023/01/01 12:56:58;;;;;;;32.88;14.75;;;;;;;;;;5052367;28;20122;-42
2023/01/01 12:59:25;;;;;;;35.42;14.27;;;;;;;;;;5052305;28;20025;-41
2023/01/01 13:01:54;;;;;;;38.28;14.10;;;;;;;;;;5052163;28;20041;-41
2023/01/01 13:04:21;;;;;;;23.20;12.02;;;;;;;;;;5052304;28;20103;-41
2023/01/01 13:06:50;;;;;;;23.95;11.73;;;;;;;;;;5052276;28;20061;-41
2023/01/01 13:09:21;;;;;;;18.25;11.05;;;;;;;;;;5052182;28;20030;-41
2023/01/01 13:11:51;;;;;;;29.95;12.63;;;;;;;;;;5052444;28;20382;-41
2023/01/01 13:14:17;;;;;;;30.80;13.68;;;;;;;;;;5052399;28;20047;-41
2023/01/01 13:16:51;;;;;;;30.73;13.25;;;;;;;;;;5051968;28;20475;-41
2023/01/01 13:19:31;;;;;;;32.20;14.60;;;;;;;;;;5052110;28;20029;-41
2023/01/01 13:21:57;;;;;;;30.42;13.85;;;;;;;;;;5052086;28;20106;-41
2023/01/01 13:24:24;;;;;;;28.08;13.10;;;;;;;;;;5052229;28;20456;-41
2023/01/01 13:26:49;;;;;;;32.42;14.20;;;;;;;;;;5051600;28;20055;-41
2023/01/01 13:29:15;;;;;;;30.70;13.80;;;;;;;;;;5051778;28;20546;-41
2023/01/01 13:31:40;;;;;;;38.22;15.73;;;;;;;;;;5051819;28;20033;-41
2023/01/01 13:34:25;;;;;;;31.08;15.50;;;;;;;;;;5051694;28;20020;-41
2023/01/01 13:36:50;;;;;;;31.65;14.27;;;;;;;;;;5051727;28;20471;-41
2023/01/01 13:39:34;;;;;;;32.67;13.48;;;;;;;;;;5051777;28;20025;-41
2023/01/01 13:42:00;;;;;;;35.30;14.10;;;;;;;;;;5051452;28;20041;-41
2023/01/01 13:44:25;;;;;;;26.98;13.73;;;;;;;;;;5051822;28;20021;-41
2023/01/01 13:46:51;;;;;;;34.13;14.88;;;;;;;;;;5051522;28;20086;-41
2023/01/01 13:49:22;;;;;;;26.83;14.73;;;;;;;;;;5051504;28;20397;-41
2023/01/01 13:51:54;;;;;;;27.25;14.43;;;;;;;;;;5051824;28;20128;-41
2023/01/01 13:54:19;;;;;;;29.65;12.43;;;;;;;;;;5051444;28;20112;-41
2023/01/01 13:56:44;;;;;;;30.63;14.10;;;;;;;;;;5051466;28;20428;-41
2023/01/01 13:59:19;;;;;;;30.35;13.95;;;;;;;;;;5051614;28;20028;-41
2023/01/01 14:01:45;;;;;;;27.48;13.57;;;;;;;;;;5051092;28;20049;-40
2023/01/01 14:04:15;;;;;;;35.40;14.80;;;;;;;;;;5051274;28;20025;-41
2023/01/01 14:06:41;;;;;;;30.40;15.00;;;;;;;;;;5051184;28;20043;-41
2023/01/01 14:09:14;;;;;;;31.88;13.35;;;;;;;;;;5051304;28;20021;-41
2023/01/01 14:11:40;;;;;;;28.48;12.57;;;;;;;;;;5051312;28;20059;-41
2023/01/01 14:14:24;;;;;;;37.55;13.75;;;;;;;;;;5051206;28;20083;-41
2023/01/01 14:16:51;;;;;;;33.95;13.00;;;;;;;;;;5051211;28;20116;-41
2023/01/01 14:19:17;;;;;;;39.70;15.30;;;;;;;;;;5051221;28;20013;-41
2023/01/01 14:21:43;;;;;;;30.48;14.00;;;;;;;;;;5051055;28;20037;-41
2023/01/01 14:24:13;;;;;;;28.23;14.57;;;;;;;;;;5050148;28;20023;-41
2023/01/01 14:26:39;;;;;;;35.15;14.75;;;;;;;;;;5051082;28;20029;-43
2023/01/01 14:29:06;;;;;;;35.78;17.10;;;;;;;;;;5051261;28;20109;-41
2023/01/01 14:31:39;;;;;;;32.53;13.93;;;;;;;;;;5051107;28;20613;-41
2023/01/01 14:34:24;;;;;;;28.17;12.93;;;;;;;;;;5050932;28;20033;-41
2023/01/01 14:36:53;;;;;;;23.08;12.52;;;;;;;;;;5050984;28;20040;-41